createdAt,value
2018-09-26T00:01:00.256Z,3.23
2018-09-26T00:11:58.931Z,3.23
2018-09-26T00:22:59.739Z,3.23
2018-09-26T00:34:03.585Z,3.22
2018-09-26T00:45:07.237Z,3.22
2018-09-26T00:56:03.756Z,3.22
2018-09-26T01:07:01.914Z,3.22
2018-09-26T01:18:05.291Z,3.21
2018-09-26T01:29:07.746Z,3.21
2018-09-26T01:40:08.299Z,3.21
2018-09-26T01:51:10.558Z,3.20
2018-09-26T02:02:10.750Z,3.20
2018-09-26T02:13:06.819Z,3.19
2018-09-26T02:24:08.668Z,3.19
2018-09-26T02:35:05.863Z,3.19
2018-09-26T02:46:07.748Z,3.19
2018-09-26T02:57:09.969Z,3.18
2018-09-26T03:08:11.259Z,3.18
2018-09-26T03:19:11.820Z,3.18
2018-09-26T03:30:06.365Z,3.17
2018-09-26T03:41:05.762Z,3.17
2018-09-26T03:52:07.630Z,3.17
2018-09-26T04:03:09.816Z,3.16
2018-09-26T04:14:07.682Z,3.16
2018-09-26T04:25:10.474Z,3.15
2018-09-26T04:36:11.496Z,3.15
2018-09-26T04:47:14.496Z,3.15
2018-09-26T04:58:10.464Z,3.15
2018-09-26T05:09:10.926Z,3.15
2018-09-26T05:20:13.493Z,3.15
2018-09-26T05:31:14.835Z,3.15
2018-09-26T05:42:17.623Z,3.15
2018-09-26T05:53:20.214Z,3.16
2018-09-26T06:04:20.108Z,3.17
2018-09-26T06:15:22.806Z,3.17
2018-09-26T06:26:26.600Z,3.18
2018-09-26T06:37:29.925Z,3.19
2018-09-26T06:48:33.140Z,3.20
2018-09-26T06:59:36.516Z,3.21
2018-09-26T07:10:39.935Z,3.22
2018-09-26T07:21:38.564Z,3.23
2018-09-26T07:32:42.016Z,3.25
2018-09-26T07:43:44.486Z,3.26
2018-09-26T07:54:47.795Z,3.27
2018-09-26T08:05:50.160Z,3.28
2018-09-26T08:16:52.146Z,3.29
2018-09-26T08:27:54.936Z,3.30
2018-09-26T08:38:56.189Z,3.31
2018-09-26T08:49:59.213Z,3.32
2018-09-26T09:01:01.024Z,3.33
2018-09-26T09:12:03.627Z,3.34
2018-09-26T09:23:06.095Z,3.35
2018-09-26T09:34:08.603Z,3.36
2018-09-26T09:45:09.633Z,3.37
2018-09-26T09:56:12.498Z,3.39
2018-09-26T10:07:14.505Z,3.41
2018-09-26T10:18:15.528Z,3.41
2018-09-26T10:29:16.774Z,3.42
2018-09-26T10:40:18.641Z,3.42
2018-09-26T10:51:19.138Z,3.46
2018-09-26T11:02:17.510Z,3.42
2018-09-26T11:13:05.679Z,3.40
2018-09-26T11:24:03.768Z,3.41
2018-09-26T11:34:55.754Z,3.42
2018-09-26T11:45:57.027Z,3.42
2018-09-26T11:56:38.469Z,3.39
2018-09-26T12:07:34.817Z,3.39
2018-09-26T12:18:34.643Z,3.39
2018-09-26T12:29:34.252Z,3.39
2018-09-26T12:40:34.592Z,3.39
2018-09-26T12:51:36.196Z,3.39
2018-09-26T13:02:36.619Z,3.39
2018-09-26T13:13:38.802Z,3.40
2018-09-26T13:24:39.512Z,3.40
2018-09-26T13:35:31.561Z,3.40
2018-09-26T13:46:25.882Z,3.40
2018-09-26T13:57:25.807Z,3.41
2018-09-26T14:08:15.647Z,3.40
2018-09-26T14:19:09.308Z,3.42
2018-09-26T14:30:09.104Z,3.41
2018-09-26T14:41:09.151Z,3.44
2018-09-26T14:52:10.666Z,3.44
2018-09-26T15:03:09.665Z,3.44
2018-09-26T15:14:11.360Z,3.42
2018-09-26T15:25:10.510Z,3.44
2018-09-26T15:36:11.787Z,3.44
2018-09-26T15:47:11.410Z,3.41
2018-09-26T15:58:08.696Z,3.43
2018-09-26T16:09:10.016Z,3.41
2018-09-26T16:20:06.295Z,3.40
2018-09-26T16:31:00.589Z,3.39
2018-09-26T16:41:56.068Z,3.39
2018-09-26T16:52:55.607Z,3.38
2018-09-26T17:03:54.546Z,3.37
2018-09-26T17:14:53.265Z,3.37
2018-09-26T17:25:51.424Z,3.36
2018-09-26T17:36:45.745Z,3.35
2018-09-26T17:47:43.834Z,3.34
2018-09-26T17:58:44.168Z,3.34
2018-09-26T18:09:44.002Z,3.34
2018-09-26T18:20:43.626Z,3.33
2018-09-26T18:31:43.727Z,3.33
2018-09-26T18:42:43.436Z,3.33
2018-09-26T18:53:43.708Z,3.33
2018-09-26T19:04:39.139Z,3.32
2018-09-26T19:15:39.205Z,3.32
2018-09-26T19:26:34.827Z,3.31
2018-09-26T19:37:32.217Z,3.30
2018-09-26T19:48:32.199Z,3.30
2018-09-26T19:59:32.526Z,3.30
2018-09-26T20:10:28.690Z,3.30
2018-09-26T20:21:27.015Z,3.29
2018-09-26T20:32:27.798Z,3.29
2018-09-26T20:43:29.749Z,3.29
2018-09-26T20:54:31.663Z,3.29
2018-09-26T21:05:34.415Z,3.29
2018-09-26T21:16:36.051Z,3.28
2018-09-26T21:27:37.276Z,3.28
2018-09-26T21:38:38.181Z,3.28
2018-09-26T21:49:39.277Z,3.28
2018-09-26T22:00:40.809Z,3.28
2018-09-26T22:11:43.191Z,3.27
2018-09-26T22:22:44.036Z,3.27
2018-09-26T22:33:46.361Z,3.26
2018-09-26T22:44:48.845Z,3.26
2018-09-26T22:55:50.213Z,3.26
2018-09-26T23:06:51.835Z,3.26
2018-09-26T23:17:50.226Z,3.25
2018-09-26T23:28:51.306Z,3.25
2018-09-26T23:39:49.867Z,3.25
2018-09-26T23:50:52.623Z,3.25
